createdAt,value
2022-10-13T00:00:46.363Z,12.60
2022-10-13T00:01:47.924Z,12.60
2022-10-13T00:02:49.425Z,12.60
2022-10-13T00:03:51.366Z,12.50
2022-10-13T00:04:54.969Z,12.60
2022-10-13T00:05:58.183Z,12.50
2022-10-13T00:06:59.563Z,12.50
2022-10-13T00:08:01.710Z,12.50
2022-10-13T00:09:05.315Z,12.50
2022-10-13T00:10:07.867Z,12.50
2022-10-13T00:11:14.675Z,12.50
2022-10-13T00:12:16.964Z,12.40
2022-10-13T00:13:20.137Z,12.40
2022-10-13T00:14:22.573Z,12.30
2022-10-13T00:15:25.931Z,12.30
2022-10-13T00:16:28.573Z,12.30
2022-10-13T00:17:30.134Z,12.20
2022-10-13T00:18:31.573Z,12.20
2022-10-13T00:19:33.882Z,12.20
2022-10-13T00:20:36.165Z,12.30
2022-10-13T00:21:37.584Z,12.20
2022-10-13T00:22:39.168Z,12.20
2022-10-13T00:23:41.364Z,12.30
2022-10-13T00:24:42.736Z,12.20
2022-10-13T00:25:49.987Z,12.20
2022-10-13T00:26:52.347Z,12.20
2022-10-13T00:27:54.120Z,12.10
2022-10-13T00:28:58.183Z,12.10
2022-10-13T00:30:00.049Z,12.10
2022-10-13T00:31:01.447Z,12.10
2022-10-13T00:32:02.863Z,12.20
2022-10-13T00:33:05.109Z,12.10
2022-10-13T00:34:06.544Z,12.10
2022-10-13T00:35:08.503Z,12.10
2022-10-13T00:36:10.282Z,12.10
2022-10-13T00:37:11.776Z,12.00
2022-10-13T00:38:14.093Z,12.00
2022-10-13T00:39:15.459Z,12.00
2022-10-13T00:40:16.889Z,12.00
2022-10-13T00:41:19.003Z,11.90
2022-10-13T00:42:21.061Z,11.80
2022-10-13T00:43:47.255Z,11.80
2022-10-13T00:45:06.987Z,11.80
2022-10-13T00:46:09.535Z,11.80
2022-10-13T00:47:10.997Z,11.70
2022-10-13T00:48:13.593Z,11.70
2022-10-13T00:49:15.402Z,11.70
2022-10-13T00:50:29.917Z,11.70
2022-10-13T00:51:35.908Z,11.70
2022-10-13T00:52:39.084Z,11.60
2022-10-13T00:53:43.627Z,11.60
2022-10-13T00:54:46.947Z,11.60
2022-10-13T00:55:49.652Z,11.60
2022-10-13T00:56:52.070Z,11.70
2022-10-13T00:57:55.832Z,11.70
2022-10-13T00:59:08.457Z,11.70
2022-10-13T01:00:10.828Z,11.60
2022-10-13T01:01:12.377Z,11.60
2022-10-13T01:02:14.176Z,11.60
2022-10-13T01:03:16.067Z,11.60
2022-10-13T01:04:19.749Z,11.60
2022-10-13T01:05:21.869Z,11.50
2022-10-13T01:06:24.064Z,11.50
2022-10-13T01:07:26.404Z,11.50
2022-10-13T01:08:29.518Z,11.50
2022-10-13T01:09:37.320Z,11.40
2022-10-13T01:11:06.599Z,11.30
2022-10-13T01:12:30.506Z,11.30
2022-10-13T01:13:49.037Z,11.30
2022-10-13T01:15:06.616Z,11.30
2022-10-13T01:16:23.253Z,11.30
2022-10-13T01:17:44.990Z,11.30
2022-10-13T01:19:00.232Z,11.30
2022-10-13T01:20:13.953Z,11.20
2022-10-13T01:21:41.921Z,11.20
2022-10-13T01:23:04.883Z,11.20
2022-10-13T01:24:34.903Z,11.20
2022-10-13T01:25:57.198Z,11.10
2022-10-13T01:27:31.136Z,11.20
2022-10-13T01:29:09.969Z,11.10
2022-10-13T01:30:20.509Z,11.00
2022-10-13T01:32:08.056Z,11.10
2022-10-13T01:33:18.267Z,11.10
2022-10-13T01:34:33.138Z,11.00
2022-10-13T01:36:08.542Z,11.00
2022-10-13T01:37:20.427Z,11.00
2022-10-13T01:38:43.530Z,11.00
2022-10-13T01:39:48.117Z,11.10
2022-10-13T01:41:01.586Z,11.10
2022-10-13T01:42:13.034Z,11.00
2022-10-13T01:43:29.573Z,11.00
2022-10-13T01:44:38.364Z,11.00
2022-10-13T01:46:00.954Z,10.90
2022-10-13T01:47:04.142Z,10.90
2022-10-13T01:48:07.353Z,10.90
2022-10-13T01:49:18.960Z,10.90
2022-10-13T01:50:21.061Z,10.90
2022-10-13T01:51:25.074Z,10.90
2022-10-13T01:52:34.501Z,10.90
2022-10-13T01:53:36.704Z,10.80
2022-10-13T01:54:38.120Z,10.80
2022-10-13T01:55:53.882Z,10.80
2022-10-13T01:56:56.363Z,10.90
2022-10-13T01:57:58.333Z,10.90
2022-10-13T01:59:03.367Z,10.90
2022-10-13T02:00:14.500Z,10.80
2022-10-13T02:01:49.543Z,10.80
2022-10-13T02:03:30.993Z,10.80
2022-10-13T02:04:45.757Z,10.80
2022-10-13T02:05:59.092Z,10.80
2022-10-13T02:07:20.721Z,10.80
2022-10-13T02:08:46.098Z,10.80
2022-10-13T02:10:03.501Z,10.80
2022-10-13T02:11:20.709Z,10.80
2022-10-13T02:12:42.303Z,10.80
2022-10-13T02:13:51.816Z,10.80
2022-10-13T02:15:00.949Z,10.90
2022-10-13T02:16:02.928Z,10.80
2022-10-13T02:17:05.845Z,10.80
2022-10-13T02:18:12.157Z,10.80
2022-10-13T02:19:17.150Z,10.80
2022-10-13T02:20:20.509Z,10.70
2022-10-13T02:21:22.001Z,10.70
2022-10-13T02:22:31.299Z,10.70
2022-10-13T02:23:33.885Z,10.80
2022-10-13T02:24:35.928Z,10.80
2022-10-13T02:25:37.913Z,10.70
2022-10-13T02:26:40.934Z,10.70
2022-10-13T02:27:45.666Z,10.80
2022-10-13T02:28:47.172Z,10.80
2022-10-13T02:29:51.170Z,10.80
2022-10-13T02:30:53.871Z,10.80
2022-10-13T02:31:55.428Z,10.80
2022-10-13T02:32:56.935Z,10.80
2022-10-13T02:33:58.536Z,10.80
2022-10-13T02:35:00.058Z,10.80
2022-10-13T02:36:01.425Z,10.80
2022-10-13T02:37:02.799Z,10.80
2022-10-13T02:38:04.423Z,10.70
2022-10-13T02:39:11.338Z,10.70
2022-10-13T02:40:14.164Z,10.70
2022-10-13T02:41:15.696Z,10.70
2022-10-13T02:42:17.747Z,10.70
2022-10-13T02:43:19.565Z,10.60
2022-10-13T02:44:21.144Z,10.60
2022-10-13T02:45:22.612Z,10.60
2022-10-13T02:46:24.821Z,10.60
2022-10-13T02:47:26.213Z,10.60
2022-10-13T02:48:27.578Z,10.60
2022-10-13T02:49:28.981Z,10.70
2022-10-13T02:50:30.374Z,10.60
2022-10-13T02:51:36.301Z,10.70
2022-10-13T02:52:41.546Z,10.70
2022-10-13T02:53:42.953Z,10.60
2022-10-13T02:54:44.332Z,10.60
2022-10-13T02:55:45.716Z,10.70
2022-10-13T02:56:47.104Z,10.60
2022-10-13T02:57:48.842Z,10.70
2022-10-13T02:58:50.217Z,10.70
2022-10-13T02:59:51.651Z,10.70
2022-10-13T03:00:53.062Z,10.70
2022-10-13T03:01:54.609Z,10.70
2022-10-13T03:02:56.202Z,10.70
2022-10-13T03:03:57.667Z,10.70
2022-10-13T03:04:59.135Z,10.70
2022-10-13T03:06:00.847Z,10.70
2022-10-13T03:07:03.611Z,10.70
2022-10-13T03:08:05.618Z,10.70
2022-10-13T03:09:07.249Z,10.70
2022-10-13T03:10:09.803Z,10.70
2022-10-13T03:11:11.221Z,10.60
2022-10-13T03:12:12.629Z,10.70
2022-10-13T03:13:14.049Z,10.70
2022-10-13T03:14:15.531Z,10.70
2022-10-13T03:15:17.020Z,10.70
2022-10-13T03:16:18.643Z,10.60
2022-10-13T03:17:20.065Z,10.70
2022-10-13T03:18:21.529Z,10.70
2022-10-13T03:19:22.992Z,10.70
2022-10-13T03:20:24.424Z,10.70
2022-10-13T03:21:26.527Z,10.70
2022-10-13T03:22:28.546Z,10.70
2022-10-13T03:23:31.599Z,10.70
2022-10-13T03:24:33.098Z,10.80
2022-10-13T03:25:35.346Z,10.80
2022-10-13T03:26:36.768Z,10.80
2022-10-13T03:27:38.129Z,10.80
2022-10-13T03:28:39.689Z,10.70
2022-10-13T03:29:41.244Z,10.70
2022-10-13T03:30:42.823Z,10.70
2022-10-13T03:31:44.966Z,10.70
2022-10-13T03:32:46.400Z,10.70
2022-10-13T03:33:47.826Z,10.60
2022-10-13T03:34:50.054Z,10.60
2022-10-13T03:35:51.446Z,10.60
2022-10-13T03:36:52.898Z,10.70
2022-10-13T03:37:54.489Z,10.70
2022-10-13T03:38:59.657Z,10.70
2022-10-13T03:40:01.087Z,10.70
2022-10-13T03:41:14.260Z,10.70
2022-10-13T03:42:18.117Z,10.70
2022-10-13T03:43:23.161Z,10.70
2022-10-13T03:44:24.690Z,10.70
2022-10-13T03:45:26.129Z,10.70
2022-10-13T03:46:29.558Z,10.70
2022-10-13T03:47:35.317Z,10.70
2022-10-13T03:48:37.213Z,10.70
2022-10-13T03:49:39.076Z,10.70
2022-10-13T03:50:40.809Z,10.70
2022-10-13T03:51:42.214Z,10.70
2022-10-13T03:52:43.597Z,10.70
2022-10-13T03:53:45.845Z,10.70
2022-10-13T03:54:47.507Z,10.70
2022-10-13T03:55:53.300Z,10.70
2022-10-13T03:56:54.708Z,10.80
2022-10-13T03:57:56.172Z,10.90
2022-10-13T03:58:59.682Z,10.90
2022-10-13T04:00:02.074Z,10.80
2022-10-13T04:01:14.409Z,10.80
2022-10-13T04:02:17.074Z,10.80
2022-10-13T04:03:18.750Z,10.80
2022-10-13T04:04:20.117Z,10.80
2022-10-13T04:05:23.640Z,10.80
2022-10-13T04:06:26.628Z,10.80
2022-10-13T04:07:28.050Z,10.80
2022-10-13T04:08:30.592Z,10.80
2022-10-13T04:09:32.003Z,10.70
2022-10-13T04:10:33.974Z,10.70
2022-10-13T04:11:35.737Z,10.80
2022-10-13T04:12:37.166Z,10.80
2022-10-13T04:13:38.567Z,10.80
2022-10-13T04:14:39.940Z,10.80
2022-10-13T04:15:42.849Z,10.80
2022-10-13T04:16:44.524Z,10.80
2022-10-13T04:17:45.896Z,10.80
2022-10-13T04:18:52.567Z,10.80
2022-10-13T04:19:53.997Z,10.90
2022-10-13T04:20:55.406Z,10.90
2022-10-13T04:21:57.067Z,10.80
2022-10-13T04:22:58.459Z,10.80
2022-10-13T04:24:01.271Z,10.90
2022-10-13T04:25:03.034Z,10.80
2022-10-13T04:26:05.624Z,10.80
2022-10-13T04:27:07.029Z,10.80
2022-10-13T04:28:08.679Z,10.90
2022-10-13T04:29:12.466Z,10.90
2022-10-13T04:30:14.486Z,10.90
2022-10-13T04:31:16.701Z,10.80
2022-10-13T04:32:18.463Z,10.90
2022-10-13T04:33:20.104Z,10.90
2022-10-13T04:34:21.542Z,10.90
2022-10-13T04:35:23.413Z,10.90
2022-10-13T04:36:25.646Z,10.80
2022-10-13T04:37:27.031Z,10.90
2022-10-13T04:38:29.345Z,10.90
2022-10-13T04:39:30.862Z,11.00
2022-10-13T04:40:32.443Z,11.00
2022-10-13T04:41:34.087Z,11.00
2022-10-13T04:42:35.540Z,11.00
2022-10-13T04:43:38.260Z,11.00
2022-10-13T04:44:39.843Z,11.00
2022-10-13T04:45:42.765Z,11.00
2022-10-13T04:46:44.209Z,11.00
2022-10-13T04:47:45.724Z,11.00
2022-10-13T04:48:47.679Z,11.00
2022-10-13T04:49:49.166Z,11.10
2022-10-13T04:50:59.807Z,11.00
2022-10-13T04:52:01.228Z,11.10
2022-10-13T04:53:02.587Z,11.00
2022-10-13T04:54:05.530Z,11.00
2022-10-13T04:55:07.626Z,11.00
2022-10-13T04:56:14.902Z,11.10
2022-10-13T04:57:16.258Z,11.00
2022-10-13T04:58:17.692Z,11.00
2022-10-13T04:59:19.421Z,11.00
2022-10-13T05:00:20.888Z,11.00
2022-10-13T05:01:24.345Z,11.00
2022-10-13T05:02:25.696Z,11.00
2022-10-13T05:03:27.340Z,11.00
2022-10-13T05:04:29.117Z,11.00
2022-10-13T05:05:30.507Z,11.10
2022-10-13T05:06:34.668Z,11.00
2022-10-13T05:07:36.074Z,11.00
2022-10-13T05:08:38.263Z,11.10
2022-10-13T05:09:39.814Z,11.10
2022-10-13T05:11:02.271Z,11.10
2022-10-13T05:12:03.839Z,11.10
2022-10-13T05:13:05.699Z,11.10
2022-10-13T05:14:07.093Z,11.00
2022-10-13T05:15:09.013Z,11.00
2022-10-13T05:16:12.867Z,11.10
2022-10-13T05:17:14.540Z,11.10
2022-10-13T05:18:16.203Z,11.20
2022-10-13T05:19:17.921Z,11.20
2022-10-13T05:20:19.359Z,11.10
2022-10-13T05:21:24.233Z,11.10
2022-10-13T05:22:27.593Z,11.10
2022-10-13T05:23:29.089Z,11.10
2022-10-13T05:24:36.670Z,11.10
2022-10-13T05:25:38.866Z,11.00
2022-10-13T05:26:40.994Z,11.10
2022-10-13T05:27:42.466Z,11.10
2022-10-13T05:28:45.024Z,11.10
2022-10-13T05:29:46.595Z,11.10
2022-10-13T05:30:47.972Z,11.00
2022-10-13T05:31:49.606Z,11.00
2022-10-13T05:32:53.830Z,11.00
2022-10-13T05:33:56.951Z,11.00
2022-10-13T05:34:58.359Z,11.00
2022-10-13T05:36:07.475Z,11.10
2022-10-13T05:37:11.871Z,11.10
2022-10-13T05:38:14.513Z,11.10
2022-10-13T05:39:17.027Z,11.10
2022-10-13T05:40:21.307Z,11.10
2022-10-13T05:41:23.849Z,11.10
2022-10-13T05:42:25.338Z,11.10
2022-10-13T05:43:26.936Z,11.10
2022-10-13T05:44:28.463Z,11.00
2022-10-13T05:45:32.202Z,11.10
2022-10-13T05:46:33.789Z,11.00
2022-10-13T05:47:35.283Z,11.00
2022-10-13T05:48:37.458Z,11.00
2022-10-13T05:49:41.994Z,11.00
2022-10-13T05:50:43.442Z,11.10
2022-10-13T05:51:48.936Z,11.10
2022-10-13T05:52:51.946Z,11.00
2022-10-13T05:54:00.145Z,11.00
2022-10-13T05:55:04.588Z,11.00
2022-10-13T05:56:13.042Z,11.10
2022-10-13T05:57:16.479Z,11.10
2022-10-13T05:58:18.415Z,11.10
2022-10-13T05:59:26.750Z,11.20
2022-10-13T06:00:29.140Z,11.10
2022-10-13T06:01:34.351Z,11.10
2022-10-13T06:02:49.107Z,11.10
2022-10-13T06:03:54.298Z,11.10
2022-10-13T06:04:57.674Z,11.20
2022-10-13T06:05:59.230Z,11.20
2022-10-13T06:07:00.656Z,11.20
2022-10-13T06:08:02.558Z,11.20
2022-10-13T06:09:07.895Z,11.20
2022-10-13T06:10:10.910Z,11.20
2022-10-13T06:11:12.408Z,11.30
2022-10-13T06:12:13.950Z,11.30
2022-10-13T06:13:15.361Z,11.20
2022-10-13T06:14:16.796Z,11.20
2022-10-13T06:15:18.415Z,11.30
2022-10-13T06:16:20.081Z,11.30
2022-10-13T06:17:22.427Z,11.30
2022-10-13T06:18:24.099Z,11.30
2022-10-13T06:19:25.754Z,11.30
2022-10-13T06:20:27.898Z,11.30
2022-10-13T06:21:29.417Z,11.30
2022-10-13T06:22:30.911Z,11.30
2022-10-13T06:23:32.437Z,11.40
2022-10-13T06:24:33.958Z,11.40
2022-10-13T06:25:36.193Z,11.30
2022-10-13T06:26:37.599Z,11.40
2022-10-13T06:27:39.395Z,11.40
2022-10-13T06:28:40.805Z,11.40
2022-10-13T06:29:42.447Z,11.40
2022-10-13T06:30:46.918Z,11.40
2022-10-13T06:31:48.809Z,11.50
2022-10-13T06:32:50.260Z,11.50
2022-10-13T06:33:51.969Z,11.50
2022-10-13T06:34:53.469Z,11.50
2022-10-13T06:35:54.873Z,11.50
2022-10-13T06:36:56.270Z,11.60
2022-10-13T06:37:57.739Z,11.60
2022-10-13T06:38:59.187Z,11.60
2022-10-13T06:40:00.674Z,11.70
2022-10-13T06:41:03.689Z,11.70
2022-10-13T06:42:06.873Z,11.60
2022-10-13T06:43:12.560Z,11.50
2022-10-13T06:44:16.125Z,11.50
2022-10-13T06:45:19.517Z,11.40
2022-10-13T06:46:20.862Z,11.40
2022-10-13T06:47:22.559Z,11.30
2022-10-13T06:48:23.973Z,11.30
2022-10-13T06:49:25.658Z,11.40
2022-10-13T06:50:27.118Z,11.50
2022-10-13T06:51:29.655Z,11.40
2022-10-13T06:52:31.294Z,11.50
2022-10-13T06:53:33.322Z,11.50
2022-10-13T06:54:34.842Z,11.50
2022-10-13T06:55:36.363Z,11.60
2022-10-13T06:56:37.734Z,11.60
2022-10-13T06:57:44.945Z,11.70
2022-10-13T06:58:46.726Z,11.70
2022-10-13T06:59:48.705Z,11.80
2022-10-13T07:00:50.352Z,11.80
2022-10-13T07:01:52.351Z,11.90
2022-10-13T07:02:56.133Z,11.90
2022-10-13T07:03:57.619Z,12.00
2022-10-13T07:04:59.266Z,12.00
2022-10-13T07:06:05.250Z,12.10
2022-10-13T07:07:06.637Z,12.20
2022-10-13T07:08:08.016Z,12.20
2022-10-13T07:09:09.862Z,12.20
2022-10-13T07:10:11.306Z,12.20
2022-10-13T07:11:16.313Z,12.30
2022-10-13T07:12:22.943Z,12.30
2022-10-13T07:13:24.660Z,12.30
2022-10-13T07:14:26.229Z,12.40
2022-10-13T07:15:28.465Z,12.40
2022-10-13T07:16:29.901Z,12.40
2022-10-13T07:17:31.423Z,12.40
2022-10-13T07:18:33.340Z,12.40
2022-10-13T07:19:34.732Z,12.40
2022-10-13T07:20:36.201Z,12.50
2022-10-13T07:21:37.680Z,12.50
2022-10-13T07:22:39.049Z,12.50
2022-10-13T07:23:40.786Z,12.50
2022-10-13T07:24:42.768Z,12.50
2022-10-13T07:25:44.128Z,12.50
2022-10-13T07:26:45.534Z,12.60
2022-10-13T07:27:46.965Z,12.60
2022-10-13T07:28:48.621Z,12.60
2022-10-13T07:29:50.250Z,12.70
2022-10-13T07:30:52.221Z,12.60
2022-10-13T07:31:53.623Z,12.70
2022-10-13T07:32:55.074Z,12.70
2022-10-13T07:33:59.773Z,12.70
2022-10-13T07:35:03.444Z,12.70
2022-10-13T07:36:05.459Z,12.70
2022-10-13T07:37:06.903Z,12.80
2022-10-13T07:38:08.917Z,12.80
2022-10-13T07:39:10.408Z,12.90
2022-10-13T07:40:12.103Z,12.90
2022-10-13T07:41:14.369Z,12.90
2022-10-13T07:42:15.857Z,13.00
2022-10-13T07:43:17.239Z,13.00
2022-10-13T07:44:18.749Z,13.10
2022-10-13T07:45:20.281Z,13.00
2022-10-13T07:46:21.727Z,13.10
2022-10-13T07:47:23.229Z,13.10
2022-10-13T07:48:24.900Z,13.20
2022-10-13T07:49:26.305Z,13.30
2022-10-13T07:50:27.686Z,13.40
2022-10-13T07:51:30.263Z,13.40
2022-10-13T07:52:31.791Z,13.50
2022-10-13T07:53:35.242Z,13.60
2022-10-13T07:54:36.632Z,13.60
2022-10-13T07:55:38.338Z,13.70
2022-10-13T07:56:39.835Z,13.80
2022-10-13T07:57:41.884Z,13.80
2022-10-13T07:58:46.253Z,13.90
2022-10-13T07:59:47.698Z,13.90
2022-10-13T08:01:01.426Z,14.00
2022-10-13T08:02:03.210Z,14.10
2022-10-13T08:03:04.823Z,14.10
2022-10-13T08:04:06.936Z,14.20
2022-10-13T08:05:08.626Z,14.30
2022-10-13T08:06:10.409Z,14.30
2022-10-13T08:07:12.130Z,14.40
2022-10-13T08:08:13.496Z,14.50
2022-10-13T08:09:14.925Z,14.60
2022-10-13T08:10:16.401Z,14.60
2022-10-13T08:11:18.406Z,14.70
2022-10-13T08:12:20.203Z,14.80
2022-10-13T08:13:22.169Z,14.80
2022-10-13T08:14:23.646Z,14.90
2022-10-13T08:15:25.101Z,14.90
2022-10-13T08:16:28.321Z,15.00
2022-10-13T08:17:29.793Z,15.00
2022-10-13T08:18:32.091Z,14.80
2022-10-13T08:19:33.638Z,14.80
2022-10-13T08:20:41.145Z,14.60
2022-10-13T08:21:59.951Z,14.50
2022-10-13T08:23:01.833Z,14.30
2022-10-13T08:24:03.284Z,14.10
2022-10-13T08:25:06.882Z,14.10
2022-10-13T08:26:22.512Z,14.10
2022-10-13T08:27:32.756Z,14.00
2022-10-13T08:28:57.497Z,14.00
2022-10-13T08:30:05.208Z,14.00
2022-10-13T08:31:07.473Z,14.00
2022-10-13T08:32:09.038Z,13.90
2022-10-13T08:33:10.520Z,13.80
2022-10-13T08:34:12.314Z,13.70
2022-10-13T08:35:14.537Z,13.70
2022-10-13T08:36:17.748Z,13.70
2022-10-13T08:37:21.685Z,13.70
2022-10-13T08:38:23.082Z,13.70
2022-10-13T08:39:24.956Z,13.80
2022-10-13T08:40:26.806Z,13.80
2022-10-13T08:41:36.511Z,13.90
2022-10-13T08:42:37.966Z,14.00
2022-10-13T08:43:49.115Z,14.10
2022-10-13T08:46:30.683Z,14.30
2022-10-13T08:47:48.048Z,14.50
2022-10-13T08:48:49.618Z,14.40
2022-10-13T08:49:52.159Z,14.40
2022-10-13T08:50:59.473Z,14.30
2022-10-13T08:52:04.770Z,14.30
2022-10-13T08:53:18.990Z,14.40
2022-10-13T08:54:25.879Z,14.40
2022-10-13T08:55:55.266Z,14.40
2022-10-13T08:56:56.821Z,14.50
2022-10-13T08:57:59.462Z,14.50
2022-10-13T08:59:04.604Z,14.60
2022-10-13T09:00:10.120Z,14.70
2022-10-13T09:01:41.088Z,14.80
2022-10-13T09:02:45.009Z,14.90
2022-10-13T09:04:08.230Z,14.90
2022-10-13T09:05:18.883Z,15.00
2022-10-13T09:06:31.757Z,15.10
2022-10-13T09:07:36.494Z,15.20
2022-10-13T09:08:50.805Z,15.20
2022-10-13T09:09:53.690Z,15.30
2022-10-13T09:10:55.393Z,15.40
2022-10-13T09:11:59.044Z,15.40
2022-10-13T09:13:01.242Z,15.40
2022-10-13T09:14:12.237Z,15.50
2022-10-13T09:15:13.800Z,15.50
2022-10-13T09:16:15.416Z,15.60
2022-10-13T09:17:29.215Z,15.60
2022-10-13T09:18:32.384Z,15.60
2022-10-13T09:19:36.405Z,15.60
2022-10-13T09:20:40.944Z,15.70
2022-10-13T09:21:42.329Z,15.70
2022-10-13T09:22:44.843Z,15.70
2022-10-13T09:23:48.997Z,15.70
2022-10-13T09:25:20.676Z,15.80
2022-10-13T09:26:25.182Z,15.90
2022-10-13T09:27:26.586Z,15.90
2022-10-13T09:28:30.882Z,16.00
2022-10-13T09:29:32.871Z,16.00
2022-10-13T09:30:42.301Z,16.10
2022-10-13T09:31:43.984Z,16.10
2022-10-13T09:32:45.360Z,16.10
2022-10-13T09:33:56.833Z,16.20
2022-10-13T09:35:20.515Z,16.30
2022-10-13T09:36:22.095Z,16.30
2022-10-13T09:37:25.572Z,16.40
2022-10-13T09:38:27.860Z,16.40
2022-10-13T09:39:30.618Z,16.50
2022-10-13T09:40:33.129Z,16.50
2022-10-13T09:41:35.800Z,16.50
2022-10-13T09:42:37.931Z,16.60
2022-10-13T09:43:48.384Z,16.70
2022-10-13T09:45:01.326Z,16.80
2022-10-13T09:46:16.780Z,16.80
2022-10-13T09:47:22.107Z,16.80
2022-10-13T09:48:29.477Z,16.90
2022-10-13T09:49:42.922Z,17.00
2022-10-13T09:50:50.326Z,17.00
2022-10-13T09:51:52.315Z,17.10
2022-10-13T09:53:09.198Z,17.10
2022-10-13T09:54:35.107Z,17.10
2022-10-13T09:55:37.046Z,17.00
2022-10-13T09:56:41.554Z,17.00
2022-10-13T09:57:47.026Z,17.10
2022-10-13T09:59:07.172Z,17.10
2022-10-13T10:00:22.157Z,17.10
2022-10-13T10:01:29.758Z,17.30
2022-10-13T10:02:56.200Z,17.50
2022-10-13T10:03:58.165Z,17.50
2022-10-13T10:05:21.907Z,17.60
2022-10-13T10:06:26.878Z,17.70
2022-10-13T10:07:33.063Z,17.70
2022-10-13T10:09:03.838Z,17.80
2022-10-13T10:10:18.576Z,18.00
2022-10-13T10:11:44.617Z,17.80
2022-10-13T10:12:46.262Z,17.60
2022-10-13T10:13:47.663Z,17.50
2022-10-13T10:14:50.400Z,17.50
2022-10-13T10:16:33.741Z,17.60
2022-10-13T10:17:52.703Z,17.30
2022-10-13T10:19:08.315Z,17.50
2022-10-13T10:20:30.983Z,17.60
2022-10-13T10:21:47.595Z,17.70
2022-10-13T10:23:04.242Z,17.80
2022-10-13T10:24:34.068Z,17.90
2022-10-13T10:25:59.561Z,17.90
2022-10-13T10:27:06.505Z,17.70
2022-10-13T10:28:27.292Z,17.80
2022-10-13T10:29:49.066Z,17.80
2022-10-13T10:30:57.913Z,17.70
2022-10-13T10:32:15.494Z,17.50
2022-10-13T10:33:48.798Z,17.50
2022-10-13T10:35:16.358Z,17.70
2022-10-13T10:36:41.421Z,17.90
2022-10-13T10:37:45.945Z,18.00
2022-10-13T10:39:02.742Z,18.10
2022-10-13T10:40:12.963Z,18.10
2022-10-13T10:41:32.209Z,18.20
2022-10-13T10:42:49.698Z,18.20
2022-10-13T10:44:02.722Z,18.30
2022-10-13T10:45:15.822Z,18.50
2022-10-13T10:46:23.619Z,18.60
2022-10-13T10:47:28.608Z,18.60
2022-10-13T10:48:37.639Z,18.60
2022-10-13T10:49:39.727Z,18.60
2022-10-13T10:50:41.772Z,18.70
2022-10-13T10:51:44.150Z,18.70
2022-10-13T10:53:04.329Z,18.70
2022-10-13T10:54:48.435Z,18.80
2022-10-13T10:55:55.130Z,18.90
2022-10-13T10:57:33.171Z,18.90
2022-10-13T10:58:51.848Z,19.00
2022-10-13T10:59:53.778Z,19.00
2022-10-13T11:01:08.052Z,19.10
2022-10-13T11:02:32.591Z,19.10
2022-10-13T11:03:37.200Z,19.10
2022-10-13T11:04:45.443Z,19.00
2022-10-13T11:06:01.456Z,19.00
2022-10-13T11:07:04.246Z,19.00
2022-10-13T11:08:42.207Z,19.10
2022-10-13T11:09:43.550Z,18.90
2022-10-13T11:10:44.987Z,19.00
2022-10-13T11:11:46.647Z,19.00
2022-10-13T11:13:18.682Z,19.10
2022-10-13T11:14:26.850Z,19.00
2022-10-13T11:15:31.148Z,19.10
2022-10-13T11:16:39.319Z,19.10
2022-10-13T11:17:47.513Z,18.80
2022-10-13T11:18:54.737Z,18.80
2022-10-13T11:20:00.576Z,19.00
2022-10-13T11:21:02.121Z,19.00
2022-10-13T11:22:03.494Z,19.00
2022-10-13T11:23:06.204Z,19.10
2022-10-13T11:24:34.039Z,19.20
2022-10-13T11:25:48.783Z,19.20
2022-10-13T11:26:51.465Z,19.20
2022-10-13T11:27:53.826Z,19.30
2022-10-13T11:28:55.592Z,19.30
2022-10-13T11:29:59.884Z,19.30
2022-10-13T11:31:07.711Z,19.20
2022-10-13T11:32:35.189Z,19.20
2022-10-13T11:33:40.388Z,19.30
2022-10-13T11:34:57.453Z,19.20
2022-10-13T11:36:18.871Z,19.30
2022-10-13T11:37:20.494Z,19.30
2022-10-13T11:38:31.791Z,19.30
2022-10-13T11:39:42.893Z,19.50
2022-10-13T11:41:03.751Z,19.50
2022-10-13T11:42:12.344Z,19.60
2022-10-13T11:43:25.678Z,19.80
2022-10-13T11:44:30.111Z,19.80
2022-10-13T11:45:56.359Z,19.80
2022-10-13T11:47:36.126Z,19.90
2022-10-13T11:48:52.896Z,20.10
2022-10-13T11:50:21.728Z,20.20
2022-10-13T11:51:28.573Z,20.30
2022-10-13T11:53:08.127Z,20.40
2022-10-13T11:54:24.720Z,20.40
2022-10-13T11:55:43.860Z,20.40
2022-10-13T11:56:49.647Z,20.30
2022-10-13T11:57:51.058Z,20.40
2022-10-13T11:58:52.441Z,20.30
2022-10-13T11:59:56.435Z,20.40
2022-10-13T12:01:10.972Z,20.40
2022-10-13T12:02:19.515Z,20.30
2022-10-13T12:03:23.962Z,20.30
2022-10-13T12:04:27.965Z,20.20
2022-10-13T12:05:29.832Z,20.20
2022-10-13T12:06:34.247Z,20.30
2022-10-13T12:07:40.117Z,20.30
2022-10-13T12:08:46.685Z,20.30
2022-10-13T12:09:54.298Z,20.40
2022-10-13T12:10:58.765Z,20.50
2022-10-13T12:12:12.908Z,20.50
2022-10-13T12:13:27.586Z,20.60
2022-10-13T12:15:44.308Z,20.70
2022-10-13T12:16:59.617Z,20.60
2022-10-13T12:18:01.439Z,20.60
2022-10-13T12:19:20.285Z,20.70
2022-10-13T12:20:28.134Z,20.70
2022-10-13T12:21:29.780Z,20.80
2022-10-13T12:22:31.320Z,20.80
2022-10-13T12:23:33.228Z,20.80
2022-10-13T12:24:34.653Z,20.80
2022-10-13T12:25:36.659Z,20.80
2022-10-13T12:26:38.067Z,20.90
2022-10-13T12:27:47.011Z,20.90
2022-10-13T12:28:54.322Z,20.60
2022-10-13T12:29:56.063Z,20.60
2022-10-13T12:31:00.044Z,20.60
2022-10-13T12:32:01.535Z,20.70
2022-10-13T12:33:04.724Z,20.70
2022-10-13T12:34:25.814Z,20.70
2022-10-13T12:35:30.910Z,20.80
2022-10-13T12:36:34.642Z,20.80
2022-10-13T12:37:37.270Z,20.80
2022-10-13T12:38:42.131Z,20.90
2022-10-13T12:39:43.666Z,20.90
2022-10-13T12:40:49.436Z,20.90
2022-10-13T12:41:51.905Z,20.90
2022-10-13T12:42:53.563Z,20.80
2022-10-13T12:43:55.839Z,20.90
2022-10-13T12:44:59.356Z,20.90
2022-10-13T12:46:00.822Z,20.90
2022-10-13T12:47:03.907Z,20.80
2022-10-13T12:48:05.753Z,20.80
2022-10-13T12:49:12.597Z,20.80
2022-10-13T12:50:29.013Z,20.60
2022-10-13T12:51:31.598Z,20.70
2022-10-13T12:52:34.575Z,20.70
2022-10-13T12:53:39.046Z,20.80
2022-10-13T12:54:53.519Z,20.90
2022-10-13T12:56:00.486Z,20.70
2022-10-13T12:57:06.348Z,20.70
2022-10-13T12:58:22.446Z,20.70
2022-10-13T12:59:27.419Z,20.70
2022-10-13T13:00:30.705Z,20.70
2022-10-13T13:01:34.178Z,20.60
2022-10-13T13:02:35.586Z,20.70
2022-10-13T13:03:39.709Z,20.70
2022-10-13T13:04:43.673Z,20.70
2022-10-13T13:05:50.842Z,20.60
2022-10-13T13:06:58.871Z,20.60
2022-10-13T13:08:01.477Z,20.50
2022-10-13T13:09:25.018Z,20.50
2022-10-13T13:10:26.554Z,20.60
2022-10-13T13:11:37.255Z,20.60
2022-10-13T13:12:47.992Z,20.50
2022-10-13T13:13:49.557Z,20.50
2022-10-13T13:14:54.873Z,20.50
2022-10-13T13:16:24.202Z,20.40
2022-10-13T13:17:57.855Z,20.40
2022-10-13T13:18:52.082Z,20.40
2022-10-13T13:19:55.181Z,20.40
2022-10-13T13:20:57.073Z,20.40
2022-10-13T13:21:58.708Z,20.30
2022-10-13T13:23:00.712Z,20.30
2022-10-13T13:24:04.265Z,20.40
2022-10-13T13:25:17.351Z,20.30
2022-10-13T13:26:23.880Z,20.30
2022-10-13T13:27:36.379Z,20.40
2022-10-13T13:28:38.081Z,20.30
2022-10-13T13:29:39.485Z,20.30
2022-10-13T13:30:41.116Z,20.30
2022-10-13T13:31:42.711Z,20.30
2022-10-13T13:32:44.072Z,20.30
2022-10-13T13:33:46.614Z,20.30
2022-10-13T13:34:48.619Z,20.30
2022-10-13T13:35:51.282Z,20.30
2022-10-13T13:36:52.750Z,20.30
2022-10-13T13:37:54.703Z,20.30
2022-10-13T13:38:56.283Z,20.30
2022-10-13T13:39:58.990Z,20.30
2022-10-13T13:41:03.158Z,20.20
2022-10-13T13:42:05.668Z,20.20
2022-10-13T13:43:08.844Z,20.20
2022-10-13T13:44:10.211Z,20.30
2022-10-13T13:45:16.098Z,20.30
2022-10-13T13:46:21.857Z,20.30
2022-10-13T13:47:28.499Z,20.30
2022-10-13T13:48:30.288Z,20.30
2022-10-13T13:49:32.285Z,20.30
2022-10-13T13:50:37.830Z,20.20
2022-10-13T13:51:39.545Z,20.20
2022-10-13T13:52:41.708Z,20.30
2022-10-13T13:53:44.607Z,20.10
2022-10-13T13:54:47.729Z,20.10
2022-10-13T13:55:49.277Z,20.10
2022-10-13T13:56:57.934Z,20.00
2022-10-13T13:58:01.227Z,19.70
2022-10-13T13:59:02.670Z,19.70
2022-10-13T14:00:05.247Z,19.80
2022-10-13T14:01:13.845Z,19.80
2022-10-13T14:02:18.469Z,19.80
2022-10-13T14:03:19.895Z,19.60
2022-10-13T14:04:21.465Z,19.30
2022-10-13T14:05:23.833Z,19.20
2022-10-13T14:06:25.684Z,19.20
2022-10-13T14:07:27.114Z,19.20
2022-10-13T14:08:31.752Z,19.30
2022-10-13T14:09:33.274Z,19.40
2022-10-13T14:10:35.196Z,19.30
2022-10-13T14:11:36.662Z,19.40
2022-10-13T14:12:38.508Z,19.40